Wetterdaten: Freitag, 13.03.2015
Datum Zeit Temp. A. Feuchte A. Luftdruck Regen Wind Richtung Richtung Sonnenschein ET UV Solar Taupunkt Windchill Windben Empfang
13.03.2015 00:00 1,7 C 69 % 1026,0 hPa 0,0 l/m 0,0 km/h (0 Bft) S-SW 193 0 min 0,000 mm 0,0 UV-I 0 W/m -3,4 C 1,7 C 0,0 km/h (0 Bft) 0,00 %
13.03.2015 00:15 1,6 C 70 % 1025,8 hPa 0,0 l/m 0,0 km/h (0 Bft) S-SW 209 0 min 0,000 mm 0,0 UV-I 0 W/m -3,3 C 1,6 C 0,0 km/h (0 Bft) 0,00 %
13.03.2015 00:30 1,6 C 71 % 1025,6 hPa 0,0 l/m 0,0 km/h (0 Bft) S-SW 207 0 min 0,000 mm 0,0 UV-I 0 W/m -3,1 C 1,6 C 0,0 km/h (0 Bft) 0,00 %
13.03.2015 00:45 1,6 C 71 % 1025,6 hPa 0,0 l/m 0,0 km/h (0 Bft) S-SW 203 0 min 0,000 mm 0,0 UV-I 0 W/m -3,1 C 1,6 C 0,0 km/h (0 Bft) 0,00 %
13.03.2015 01:00 1,5 C 69 % 1025,7 hPa 0,0 l/m 0,0 km/h (0 Bft) SW 221 0 min 0,000 mm 0,0 UV-I 0 W/m -3,6 C 1,5 C 0,0 km/h (0 Bft) 0,00 %
13.03.2015 01:15 1,7 C 67 % 1025,5 hPa 0,0 l/m 0,0 km/h (0 Bft) S-SW 204 0 min 0,000 mm 0,0 UV-I 0 W/m -3,8 C 1,7 C 0,0 km/h (0 Bft) 0,00 %
13.03.2015 01:30 1,7 C 68 % 1025,5 hPa 0,0 l/m 0,0 km/h (0 Bft) S-SW 193 0 min 0,000 mm 0,0 UV-I 0 W/m -3,6 C 1,7 C 0,0 km/h (0 Bft) 0,00 %
13.03.2015 01:45 1,6 C 68 % 1025,2 hPa 0,0 l/m 0,0 km/h (0 Bft) S-SW 194 0 min 0,000 mm 0,0 UV-I 0 W/m -3,7 C 1,6 C 0,0 km/h (0 Bft) 0,00 %
13.03.2015 02:00 1,7 C 66 % 1024,9 hPa 0,0 l/m 0,0 km/h (0 Bft) S 185 0 min 0,000 mm 0,0 UV-I 0 W/m -4,0 C 1,7 C 0,0 km/h (0 Bft) 0,00 %
13.03.2015 02:15 2,0 C 61 % 1024,8 hPa 0,0 l/m 0,0 km/h (0 Bft) SW 224 0 min 0,000 mm 0,0 UV-I 0 W/m -4,7 C 2,0 C 0,0 km/h (0 Bft) 0,00 %
13.03.2015 02:30 2,0 C 62 % 1024,4 hPa 0,0 l/m 0,0 km/h (0 Bft) S 189 0 min 0,000 mm 0,0 UV-I 0 W/m -4,5 C 2,0 C 0,0 km/h (0 Bft) 0,00 %
13.03.2015 02:45 1,8 C 65 % 1024,4 hPa 0,0 l/m 0,0 km/h (0 Bft) SW 216 0 min 0,000 mm 0,0 UV-I 0 W/m -4,1 C 1,8 C 0,0 km/h (0 Bft) 0,00 %
13.03.2015 03:00 1,5 C 68 % 1024,1 hPa 0,0 l/m 0,0 km/h (0 Bft) S 187 0 min 0,000 mm 0,0 UV-I 0 W/m -3,7 C 1,5 C 0,0 km/h (0 Bft) 0,00 %
13.03.2015 03:15 1,4 C 69 % 1024,1 hPa 0,0 l/m 0,0 km/h (0 Bft) S-SW 193 0 min 0,000 mm 0,0 UV-I 0 W/m -3,7 C 1,4 C 0,0 km/h (0 Bft) 0,00 %
13.03.2015 03:30 1,3 C 68 % 1024,1 hPa 0,0 l/m 0,0 km/h (0 Bft) S 191 0 min 0,000 mm 0,0 UV-I 0 W/m -3,9 C 1,3 C 0,0 km/h (0 Bft) 0,00 %
13.03.2015 03:45 1,3 C 70 % 1024,1 hPa 0,0 l/m 0,0 km/h (0 Bft) S 185 0 min 0,000 mm 0,0 UV-I 0 W/m -3,6 C 1,3 C 0,0 km/h (0 Bft) 0,00 %
13.03.2015 04:00 1,3 C 69 % 1023,9 hPa 0,0 l/m 0,0 km/h (0 Bft) S-SW 195 0 min 0,000 mm 0,0 UV-I 0 W/m -3,7 C 1,3 C 0,0 km/h (0 Bft) 0,00 %
13.03.2015 04:15 1,2 C 70 % 1023,7 hPa 0,0 l/m 0,0 km/h (0 Bft) S-SW 203 0 min 0,000 mm 0,0 UV-I 0 W/m -3,7 C 1,2 C 0,0 km/h (0 Bft) 0,00 %
13.03.2015 04:30 1,1 C 69 % 1023,5 hPa 0,0 l/m 0,0 km/h (0 Bft) S 177 0 min 0,000 mm 0,0 UV-I 0 W/m -3,9 C 1,1 C 0,0 km/h (0 Bft) 0,00 %
13.03.2015 04:45 1,4 C 68 % 1023,3 hPa 0,0 l/m 0,0 km/h (0 Bft) S-SW 200 0 min 0,000 mm 0,0 UV-I 0 W/m -3,8 C 1,4 C 0,0 km/h (0 Bft) 0,00 %
13.03.2015 05:00 1,5 C 68 % 1023,4 hPa 0,0 l/m 0,4 km/h (0 Bft) O-SO 120 0 min 0,000 mm 0,0 UV-I 0 W/m -3,7 C 1,5 C 4,0 km/h (1 Bft) 0,00 %
13.03.2015 05:15 1,4 C 72 % 1023,2 hPa 0,0 l/m 0,0 km/h (0 Bft) S-SW 197 0 min 0,000 mm 0,0 UV-I 0 W/m -3,1 C 1,4 C 0,0 km/h (0 Bft) 0,00 %
13.03.2015 05:30 1,3 C 71 % 1023,2 hPa 0,0 l/m 0,0 km/h (0 Bft) O 100 0 min 0,000 mm 0,0 UV-I 0 W/m -3,4 C 1,3 C 0,0 km/h (0 Bft) 0,00 %
13.03.2015 05:45 1,3 C 71 % 1023,0 hPa 0,0 l/m 0,0 km/h (0 Bft) O 90 0 min 0,000 mm 0,0 UV-I 0 W/m -3,4 C 1,3 C 0,0 km/h (0 Bft) 0,00 %
13.03.2015 06:00 1,4 C 67 % 1022,9 hPa 0,0 l/m 0,0 km/h (0 Bft) S 170 0 min 0,000 mm 0,0 UV-I 0 W/m -4,0 C 1,4 C 0,0 km/h (0 Bft) 0,00 %
13.03.2015 06:15 1,7 C 64 % 1022,6 hPa 0,0 l/m 0,4 km/h (0 Bft) SO 129 0 min 0,000 mm 0,0 UV-I 0 W/m -4,4 C 1,7 C 4,0 km/h (1 Bft) 0,00 %
13.03.2015 06:30 1,7 C 65 % 1022,9 hPa 0,0 l/m 0,0 km/h (0 Bft) S-SW 211 0 min 0,000 mm 0,0 UV-I 0 W/m -4,2 C 1,7 C 0,0 km/h (0 Bft) 0,00 %
13.03.2015 06:45 1,6 C 67 % 1022,8 hPa 0,0 l/m 0,0 km/h (0 Bft) S 173 0 min 0,000 mm 0,0 UV-I 0 W/m -3,9 C 1,6 C 0,0 km/h (0 Bft) 0,00 %
13.03.2015 07:00 1,6 C 65 % 1022,8 hPa 0,0 l/m 0,0 km/h (0 Bft) S 175 0 min 0,000 mm 0,0 UV-I 9 W/m -4,3 C 1,6 C 0,0 km/h (0 Bft) 0,00 %
13.03.2015 07:15 1,8 C 65 % 1022,6 hPa 0,0 l/m 0,0 km/h (0 Bft) O 98 0 min 0,000 mm 0,0 UV-I 24 W/m -4,1 C 1,8 C 0,0 km/h (0 Bft) 0,00 %
13.03.2015 07:30 1,8 C 66 % 1022,6 hPa 0,0 l/m 0,0 km/h (0 Bft) S 191 0 min 0,000 mm 0,0 UV-I 30 W/m -3,9 C 1,8 C 0,0 km/h (0 Bft) 0,00 %
13.03.2015 07:45 1,9 C 65 % 1022,4 hPa 0,0 l/m 0,4 km/h (0 Bft) SO 125 0 min 0,000 mm 0,0 UV-I 37 W/m -4,0 C 1,9 C 4,0 km/h (1 Bft) 0,00 %
13.03.2015 08:00 2,0 C 63 % 1022,6 hPa 0,0 l/m 4,7 km/h (1 Bft) O 92 0 min 0,000 mm 1,0 UV-I 42 W/m -4,3 C 2,0 C 7,9 km/h (2 Bft) 0,00 %
13.03.2015 08:15 2,0 C 63 % 1022,6 hPa 0,0 l/m 0,0 km/h (0 Bft) S 173 0 min 0,000 mm 1,0 UV-I 49 W/m -4,3 C 2,0 C 0,0 km/h (0 Bft) 0,00 %
13.03.2015 08:30 2,1 C 62 % 1022,6 hPa 0,0 l/m 4,0 km/h (1 Bft) O-SO 103 0 min 0,000 mm 1,0 UV-I 63 W/m -4,4 C 2,1 C 4,0 km/h (1 Bft) 0,00 %
13.03.2015 08:45 2,2 C 62 % 1022,9 hPa 0,0 l/m 3,2 km/h (1 Bft) O-SO 103 0 min 0,000 mm 1,0 UV-I 65 W/m -4,3 C 2,2 C 4,0 km/h (1 Bft) 0,00 %
13.03.2015 09:00 2,2 C 62 % 1022,8 hPa 0,0 l/m 6,5 km/h (2 Bft) O-SO 107 0 min 0,000 mm 1,0 UV-I 71 W/m -4,3 C 2,1 C 11,9 km/h (2 Bft) 0,00 %
13.03.2015 09:15 2,3 C 65 % 1022,7 hPa 0,0 l/m 0,4 km/h (0 Bft) NO 42 0 min 0,000 mm 1,0 UV-I 84 W/m -3,6 C 2,3 C 4,0 km/h (1 Bft) 0,00 %
13.03.2015 09:30 2,5 C 64 % 1022,0 hPa 0,0 l/m 0,0 km/h (0 Bft) N 354 0 min 0,000 mm 1,0 UV-I 101 W/m -3,6 C 2,5 C 0,0 km/h (0 Bft) 0,00 %
13.03.2015 09:45 2,6 C 64 % 1022,0 hPa 0,0 l/m 4,3 km/h (1 Bft) O 89 0 min 0,000 mm 1,0 UV-I 102 W/m -3,5 C 2,6 C 7,9 km/h (2 Bft) 0,00 %
13.03.2015 10:00 2,8 C 64 % 1021,9 hPa 0,0 l/m 0,0 km/h (0 Bft) S-SW 208 0 min 0,000 mm 1,0 UV-I 118 W/m -3,3 C 2,8 C 0,0 km/h (0 Bft) 0,00 %
13.03.2015 10:15 3,1 C 63 % 1021,7 hPa 0,0 l/m 0,7 km/h (0 Bft) N-NO 25 0 min 0,000 mm 2,0 UV-I 129 W/m -3,2 C 3,1 C 4,0 km/h (1 Bft) 0,00 %
13.03.2015 10:30 3,3 C 61 % 1021,7 hPa 0,0 l/m 5,4 km/h (1 Bft) O 97 0 min 0,000 mm 2,0 UV-I 146 W/m -3,5 C 3,3 C 7,9 km/h (2 Bft) 0,00 %
13.03.2015 10:45 3,4 C 59 % 1021,6 hPa 0,0 l/m 0,4 km/h (0 Bft) SW 236 0 min 0,000 mm 2,0 UV-I 158 W/m -3,8 C 3,4 C 4,0 km/h (1 Bft) 0,00 %
13.03.2015 11:00 3,7 C 60 % 1021,2 hPa 0,0 l/m 0,7 km/h (0 Bft) SO 130 0 min 0,000 mm 2,0 UV-I 181 W/m -3,3 C 3,7 C 4,0 km/h (1 Bft) 0,00 %
13.03.2015 11:15 4,1 C 58 % 1021,1 hPa 0,0 l/m 0,0 km/h (0 Bft) W-SW 254 0 min 0,000 mm 2,0 UV-I 215 W/m -3,4 C 4,1 C 0,0 km/h (0 Bft) 0,00 %
13.03.2015 11:30 4,3 C 57 % 1020,8 hPa 0,0 l/m 2,2 km/h (1 Bft) O-SO 105 0 min 0,000 mm 3,0 UV-I 221 W/m -3,5 C 4,3 C 4,0 km/h (1 Bft) 0,00 %
13.03.2015 11:45 5,5 C 52 % 1020,4 hPa 0,0 l/m 0,0 km/h (0 Bft) S 176 15 min 0,000 mm 3,0 UV-I 388 W/m -3,6 C 5,5 C 0,0 km/h (0 Bft) 0,00 %
13.03.2015 12:00 5,6 C 47 % 1020,1 hPa 0,0 l/m 0,0 km/h (0 Bft) SW 215 0 min 0,000 mm 3,0 UV-I 302 W/m -4,8 C 5,6 C 0,0 km/h (0 Bft) 0,00 %
13.03.2015 12:15 5,9 C 50 % 1019,9 hPa 0,0 l/m 4,0 km/h (1 Bft) W-SW 257 0 min 0,000 mm 3,0 UV-I 268 W/m -3,7 C 5,9 C 4,0 km/h (1 Bft) 0,00 %
13.03.2015 12:30 5,8 C 49 % 1019,6 hPa 0,0 l/m 3,2 km/h (1 Bft) O 95 0 min 0,000 mm 3,0 UV-I 277 W/m -4,1 C 5,8 C 4,0 km/h (1 Bft) 0,00 %
13.03.2015 12:45 6,2 C 47 % 1019,8 hPa 0,0 l/m 0,0 km/h (0 Bft) NO 39 0 min 0,000 mm 3,0 UV-I 305 W/m -4,3 C 6,2 C 0,0 km/h (0 Bft) 0,00 %
13.03.2015 13:00 6,3 C 47 % 1019,6 hPa 0,0 l/m 5,4 km/h (1 Bft) NO 35 0 min 0,000 mm 2,0 UV-I 272 W/m -4,2 C 6,3 C 7,9 km/h (2 Bft) 0,00 %
13.03.2015 13:15 5,9 C 48 % 1019,7 hPa 0,0 l/m 0,4 km/h (0 Bft) S-SO 162 0 min 0,000 mm 2,0 UV-I 245 W/m -4,3 C 5,9 C 4,0 km/h (1 Bft) 0,00 %
13.03.2015 13:30 5,2 C 49 % 1020,1 hPa 0,0 l/m 0,7 km/h (0 Bft) O 97 0 min 0,000 mm 1,0 UV-I 160 W/m -4,6 C 5,2 C 4,0 km/h (1 Bft) 0,00 %
13.03.2015 13:45 5,1 C 51 % 1020,1 hPa 0,0 l/m 1,8 km/h (1 Bft) SO 135 0 min 0,000 mm 1,0 UV-I 144 W/m -4,2 C 5,1 C 4,0 km/h (1 Bft) 0,00 %
13.03.2015 14:00 5,0 C 52 % 1020,0 hPa 0,0 l/m 4,7 km/h (1 Bft) SO 127 0 min 0,000 mm 1,0 UV-I 139 W/m -4,0 C 5,0 C 7,9 km/h (2 Bft) 0,00 %
13.03.2015 14:15 5,0 C 51 % 1020,2 hPa 0,0 l/m 4,7 km/h (1 Bft) O 101 0 min 0,000 mm 1,0 UV-I 134 W/m -4,3 C 5,0 C 7,9 km/h (2 Bft) 0,00 %
13.03.2015 14:30 5,0 C 52 % 1020,0 hPa 0,0 l/m 0,0 km/h (0 Bft) S 181 0 min 0,000 mm 1,0 UV-I 131 W/m -4,0 C 5,0 C 0,0 km/h (0 Bft) 0,00 %
13.03.2015 14:45 5,1 C 54 % 1020,1 hPa 0,0 l/m 0,0 km/h (0 Bft) O 80 0 min 0,000 mm 1,0 UV-I 132 W/m -3,4 C 5,1 C 0,0 km/h (0 Bft) 0,00 %
13.03.2015 15:00 4,8 C 55 % 1020,2 hPa 0,0 l/m 2,2 km/h (1 Bft) O 84 0 min 0,000 mm 1,0 UV-I 116 W/m -3,5 C 4,8 C 4,0 km/h (1 Bft) 0,00 %
13.03.2015 15:15 4,7 C 54 % 1020,4 hPa 0,0 l/m 0,4 km/h (0 Bft) O-SO 117 0 min 0,000 mm 1,0 UV-I 109 W/m -3,8 C 4,7 C 4,0 km/h (1 Bft) 0,00 %
13.03.2015 15:30 4,7 C 54 % 1020,6 hPa 0,0 l/m 2,2 km/h (1 Bft) O-SO 121 0 min 0,000 mm 1,0 UV-I 95 W/m -3,8 C 4,7 C 4,0 km/h (1 Bft) 0,00 %
13.03.2015 15:45 4,7 C 55 % 1020,6 hPa 0,0 l/m 0,0 km/h (0 Bft) SO 142 0 min 0,000 mm 1,0 UV-I 86 W/m -3,6 C 4,7 C 0,0 km/h (0 Bft) 0,00 %
13.03.2015 16:00 4,5 C 55 % 1020,7 hPa 0,0 l/m 6,5 km/h (2 Bft) O-NO 78 0 min 0,000 mm 1,0 UV-I 70 W/m -3,7 C 4,4 C 7,9 km/h (2 Bft) 0,00 %
13.03.2015 16:15 4,4 C 58 % 1020,7 hPa 0,0 l/m 1,4 km/h (1 Bft) O 85 0 min 0,000 mm 1,0 UV-I 55 W/m -3,1 C 4,4 C 4,0 km/h (1 Bft) 0,00 %
13.03.2015 16:30 4,4 C 62 % 1020,9 hPa 0,0 l/m 0,7 km/h (0 Bft) O-SO 104 0 min 0,000 mm 0,0 UV-I 41 W/m -2,2 C 4,4 C 4,0 km/h (1 Bft) 0,00 %
13.03.2015 16:45 4,2 C 63 % 1021,1 hPa 0,0 l/m 0,0 km/h (0 Bft) NO 54 0 min 0,000 mm 0,0 UV-I 30 W/m -2,2 C 4,2 C 0,0 km/h (0 Bft) 0,00 %
13.03.2015 17:00 4,1 C 63 % 1021,3 hPa 0,0 l/m 0,0 km/h (0 Bft) S 183 0 min 0,000 mm 0,0 UV-I 21 W/m -2,3 C 4,1 C 0,0 km/h (0 Bft) 0,00 %
13.03.2015 17:15 3,9 C 64 % 1021,4 hPa 0,0 l/m 0,0 km/h (0 Bft) S 179 0 min 0,000 mm 0,0 UV-I 10 W/m -2,3 C 3,9 C 0,0 km/h (0 Bft) 0,00 %
13.03.2015 17:30 3,8 C 65 % 1021,6 hPa 0,0 l/m 0,7 km/h (0 Bft) O 88 0 min 0,000 mm 0,0 UV-I 3 W/m -2,2 C 3,8 C 4,0 km/h (1 Bft) 0,00 %
13.03.2015 17:45 3,7 C 68 % 1021,8 hPa 0,0 l/m 0,0 km/h (0 Bft) SO 137 0 min 0,000 mm 0,0 UV-I 0 W/m -1,6 C 3,7 C 0,0 km/h (0 Bft) 0,00 %
13.03.2015 18:00 3,5 C 67 % 1021,8 hPa 0,0 l/m 1,8 km/h (1 Bft) O 80 0 min 0,000 mm 0,0 UV-I 0 W/m -2,0 C 3,5 C 4,0 km/h (1 Bft) 0,00 %
13.03.2015 18:15 3,5 C 67 % 1021,8 hPa 0,0 l/m 0,0 km/h (0 Bft) W-SW 256 0 min 0,000 mm 0,0 UV-I 0 W/m -2,0 C 3,5 C 0,0 km/h (0 Bft) 0,00 %
13.03.2015 18:30 3,3 C 69 % 1022,0 hPa 0,0 l/m 0,0 km/h (0 Bft) S 189 0 min 0,000 mm 0,0 UV-I 0 W/m -1,8 C 3,3 C 0,0 km/h (0 Bft) 0,00 %
13.03.2015 18:45 3,2 C 70 % 1022,1 hPa 0,0 l/m 2,9 km/h (1 Bft) O-SO 103 0 min 0,000 mm 0,0 UV-I 0 W/m -1,7 C 3,2 C 4,0 km/h (1 Bft) 0,00 %
13.03.2015 19:00 3,1 C 71 % 1022,1 hPa 0,0 l/m 2,2 km/h (1 Bft) O-SO 109 0 min 0,000 mm 0,0 UV-I 0 W/m -1,6 C 3,1 C 4,0 km/h (1 Bft) 0,00 %
13.03.2015 19:15 3,0 C 72 % 1022,3 hPa 0,0 l/m 0,0 km/h (0 Bft) SO 138 0 min 0,000 mm 0,0 UV-I 0 W/m -1,5 C 3,0 C 0,0 km/h (0 Bft) 0,00 %
13.03.2015 19:30 3,0 C 73 % 1022,1 hPa 0,0 l/m 0,0 km/h (0 Bft) S 175 0 min 0,000 mm 0,0 UV-I 0 W/m -1,4 C 3,0 C 0,0 km/h (0 Bft) 0,00 %
13.03.2015 19:45 2,9 C 73 % 1022,0 hPa 0,0 l/m 0,0 km/h (0 Bft) S 182 0 min 0,000 mm 0,0 UV-I 0 W/m -1,5 C 2,9 C 0,0 km/h (0 Bft) 0,00 %
13.03.2015 20:00 2,8 C 73 % 1022,0 hPa 0,0 l/m 0,0 km/h (0 Bft) S-SW 207 0 min 0,000 mm 0,0 UV-I 0 W/m -1,5 C 2,8 C 0,0 km/h (0 Bft) 0,00 %
13.03.2015 20:15 2,9 C 72 % 1022,0 hPa 0,0 l/m 0,0 km/h (0 Bft) O 101 0 min 0,000 mm 0,0 UV-I 0 W/m -1,6 C 2,9 C 0,0 km/h (0 Bft) 0,00 %
13.03.2015 20:30 2,9 C 72 % 1022,1 hPa 0,0 l/m 0,0 km/h (0 Bft) S 179 0 min 0,000 mm 0,0 UV-I 0 W/m -1,6 C 2,9 C 0,0 km/h (0 Bft) 0,00 %
13.03.2015 20:45 2,8 C 73 % 1022,1 hPa 0,0 l/m 0,0 km/h (0 Bft) NW 324 0 min 0,000 mm 0,0 UV-I 0 W/m -1,5 C 2,8 C 0,0 km/h (0 Bft) 0,00 %
13.03.2015 21:00 2,8 C 73 % 1022,0 hPa 0,0 l/m 0,7 km/h (0 Bft) N-NW 343 0 min 0,000 mm 0,0 UV-I 0 W/m -1,5 C 2,8 C 4,0 km/h (1 Bft) 0,00 %
13.03.2015 21:15 2,8 C 73 % 1021,9 hPa 0,0 l/m 0,0 km/h (0 Bft) W-SW 253 0 min 0,000 mm 0,0 UV-I 0 W/m -1,5 C 2,8 C 0,0 km/h (0 Bft) 0,00 %
13.03.2015 21:30 2,7 C 73 % 1022,0 hPa 0,0 l/m 1,4 km/h (1 Bft) O-SO 114 0 min 0,000 mm 0,0 UV-I 0 W/m -1,6 C 2,7 C 4,0 km/h (1 Bft) 0,00 %
13.03.2015 21:45 2,7 C 73 % 1022,0 hPa 0,0 l/m 1,4 km/h (1 Bft) O 94 0 min 0,000 mm 0,0 UV-I 0 W/m -1,6 C 2,7 C 4,0 km/h (1 Bft) 0,00 %
13.03.2015 22:00 2,7 C 73 % 1021,7 hPa 0,0 l/m 0,0 km/h (0 Bft) S 182 0 min 0,000 mm 0,0 UV-I 0 W/m -1,6 C 2,7 C 0,0 km/h (0 Bft) 0,00 %
13.03.2015 22:15 2,6 C 74 % 1022,1 hPa 0,0 l/m 0,0 km/h (0 Bft) SO 133 0 min 0,000 mm 0,0 UV-I 0 W/m -1,6 C 2,6 C 0,0 km/h (0 Bft) 0,00 %
13.03.2015 22:30 2,5 C 70 % 1021,7 hPa 0,0 l/m 0,0 km/h (0 Bft) O-SO 103 0 min 0,000 mm 0,0 UV-I 0 W/m -2,4 C 2,5 C 0,0 km/h (0 Bft) 0,00 %
13.03.2015 22:45 2,4 C 70 % 1021,7 hPa 0,0 l/m 0,0 km/h (0 Bft) N-NO 31 0 min 0,000 mm 0,0 UV-I 0 W/m -2,5 C 2,4 C 0,0 km/h (0 Bft) 0,00 %
13.03.2015 23:00 2,3 C 71 % 1021,8 hPa 0,0 l/m 0,0 km/h (0 Bft) S 187 0 min 0,000 mm 0,0 UV-I 0 W/m -2,4 C 2,3 C 0,0 km/h (0 Bft) 0,00 %
13.03.2015 23:15 2,3 C 72 % 1021,9 hPa 0,0 l/m 0,0 km/h (0 Bft) SW 219 0 min 0,000 mm 0,0 UV-I 0 W/m -2,2 C 2,3 C 0,0 km/h (0 Bft) 0,00 %
13.03.2015 23:30 2,2 C 71 % 1021,9 hPa 0,0 l/m 0,0 km/h (0 Bft) N-NW 347 0 min 0,000 mm 0,0 UV-I 0 W/m -2,5 C 2,2 C 0,0 km/h (0 Bft) 0,00 %
13.03.2015 23:45 2,2 C 72 % 1021,6 hPa 0,0 l/m 0,0 km/h (0 Bft) SW 216 0 min 0,000 mm 0,0 UV-I 0 W/m -2,3 C 2,2 C 0,0 km/h (0 Bft) 0,00 %
_ Min-Zeit 04:30 12:00 12:30 - 00:00 - - - - - - 12:00 04:30 00:00 00:00
Minimum _ 1,1 C 47 % 1019,6 hPa - 0,0 km/h (0 Bft) - - - - - - -4,8 C 1,1 C 0,0 km/h (0 Bft) 0,00 %
_ Max-Zeit 13:00 22:15 00:00 00:00 09:00 - - 11:45 00:00 11:30 11:45 19:30 13:00 09:00 00:00
Maximum _ 6,3 C 74 % 1026,0 hPa 0,0 l/m 6,5 km/h
O-SO (2 Bft)
- - 15 min 0,000 mm 3,0 UV-I 388 W/m -1,4 C 6,3 C 11,9 km/h
O-SO (2 Bft)
0,00 %
Durchschnitt _ 3,0 C 64 % 1022,2 hPa #0,0 l/m 0,9 km/h (0 Bft) O - #15 min. #0,000 mm 1,6 UV-I 125 W/m -3,2 C 3,0 C 1,8 km/h (1 Bft) 0,00 %